Terminal Aerodrome Forecast
Issued by NWS Portland, OR

Home | Current Version | Previous Version | Text Only | Print | Product List | Glossary On
Versions: 1 2 3 4 5 6 7 8 9 10 11 12 13 14 15 16 17 18 19 20 21 22 23 24 25 26 27 28 29 30 31 32 33 34 35 36 37 38 39 40
907
FTUS46 KPQR 061736
TAFSLE
TAF
KSLE 061736Z 0618/0718 34006KT P6SM BKN006 OVC009
     FM062200 01004KT P6SM OVC009
     FM070300 VRB03KT P6SM SCT015
     FM070600 VRB03KT 3SM BR SCT003=

USA.gov is the U.S. government's official web portal to all federal, state and local government web resources and services.